Pagrindinis puslapis
METAR-TAF:

METAR-TAF

Oro uostai :

Nasau, Bahamos

platuma: 25-03N, ilguma: 077-28W, Aukštis: 3 m

Dabartinis oras

Ataskaita buvo paskelbta 43 minutes, ne 17:00 UTC
Vėjas 13 kt iš Rytų/Pietryčių
Temperatūra 29°C
Drėgmė 66%
Slėgis 1015 hPa
Matomumas 10 km arba daugiau
Mažai debesys ne aukštis 2500 ft
Išsisklaidę debesys ne aukštis 6500 ft
Su prošvaistėmis ne aukštis 20000 ft

METAR: MYNN 221700Z 11013KT 9999 FEW025 SCT065 BKN200 29/22 A2998

Laikas: 13:43 (17:43 UTC)

Prognozė

Ataskaita buvo paskelbta 43 minutes, ne 17:00 UTC
Prognozė galioja nuo 22 metu 18 UTC su 23 metu 18 UTC
Vėjas 10 kt iš Rytų
Matomumas 10 km arba daugiau
Mažai debesys ne aukštis 1800 ft, Liūtiniai kamuoliniai debesys.
Išsisklaidę debesys ne aukštis 2500 ft
Su prošvaistėmis ne aukštis 20000 ft

TAF: MYNN 221700Z 2218/2318 10010KT 9999 FEW018CB SCT025 BKN200

Orai ataskaitas ir orų prognozės (METAR, TAF).

turimą stotys yra geltonos ir raudonos taškus žemėlapyje.

Perkelti pele per norėdami pamatyti stoties vardą.

Tada spustelėkite, norėdami matyti oro stebėjimo ir prognozės.

Norėdami pakeisti žemėlapį: spustelėkite ant žalios mygtukų su juodo kryžiaus žemyn,; žalią mygtuką su brūkšneliu, jei norite nutolinti; arba žalių rodyklių gretimoms žemėlapius.


METAR-TAF: